sensor_id;sensor_type;location;lat;lon;timestamp;temperature;humidity
25128;DHT22;13107;51.304;6.866;2022-11-04T00:02:04;10.40;99.90
25128;DHT22;13107;51.304;6.866;2022-11-04T00:06:07;10.40;99.90
25128;DHT22;13107;51.304;6.866;2022-11-04T00:10:09;10.30;99.90
25128;DHT22;13107;51.304;6.866;2022-11-04T00:14:12;10.30;99.90
25128;DHT22;13107;51.304;6.866;2022-11-04T00:18:14;10.20;99.90
25128;DHT22;13107;51.304;6.866;2022-11-04T00:22:16;10.20;99.90
25128;DHT22;13107;51.304;6.866;2022-11-04T00:26:36;10.30;99.90
25128;DHT22;13107;51.304;6.866;2022-11-04T00:30:58;10.20;99.90
25128;DHT22;13107;51.304;6.866;2022-11-04T00:35:21;10.30;99.90
25128;DHT22;13107;51.304;6.866;2022-11-04T00:39:23;10.30;99.90
25128;DHT22;13107;51.304;6.866;2022-11-04T00:43:25;10.30;99.90
25128;DHT22;13107;51.304;6.866;2022-11-04T00:47:27;10.30;99.90
25128;DHT22;13107;51.304;6.866;2022-11-04T00:51:28;10.40;99.90
25128;DHT22;13107;51.304;6.866;2022-11-04T00:55:30;10.40;99.90
25128;DHT22;13107;51.304;6.866;2022-11-04T00:59:32;10.40;99.90
25128;DHT22;13107;51.304;6.866;2022-11-04T01:03:33;10.40;99.90
25128;DHT22;13107;51.304;6.866;2022-11-04T01:07:35;10.30;99.90
25128;DHT22;13107;51.304;6.866;2022-11-04T01:11:44;10.30;99.90
25128;DHT22;13107;51.304;6.866;2022-11-04T01:15:45;10.20;99.90
25128;DHT22;13107;51.304;6.866;2022-11-04T01:19:47;10.30;99.90
25128;DHT22;13107;51.304;6.866;2022-11-04T01:23:49;10.30;99.90
25128;DHT22;13107;51.304;6.866;2022-11-04T01:27:50;10.30;99.90
25128;DHT22;13107;51.304;6.866;2022-11-04T01:31:52;10.30;99.90
25128;DHT22;13107;51.304;6.866;2022-11-04T01:35:58;10.30;99.90
25128;DHT22;13107;51.304;6.866;2022-11-04T01:40:00;10.30;99.90
25128;DHT22;13107;51.304;6.866;2022-11-04T01:48:42;10.30;99.90
25128;DHT22;13107;51.304;6.866;2022-11-04T01:52:56;10.30;99.90
25128;DHT22;13107;51.304;6.866;2022-11-04T01:57:00;10.30;99.90
25128;DHT22;13107;51.304;6.866;2022-11-04T02:01:03;10.20;99.90
25128;DHT22;13107;51.304;6.866;2022-11-04T02:05:05;10.10;99.90
25128;DHT22;13107;51.304;6.866;2022-11-04T02:09:06;10.10;99.90
25128;DHT22;13107;51.304;6.866;2022-11-04T02:13:13;10.10;99.90
25128;DHT22;13107;51.304;6.866;2022-11-04T02:30:37;9.80;99.90
25128;DHT22;13107;51.304;6.866;2022-11-04T02:34:54;9.70;99.90
25128;DHT22;13107;51.304;6.866;2022-11-04T02:39:23;9.70;99.90
25128;DHT22;13107;51.304;6.866;2022-11-04T02:43:47;9.70;99.90
25128;DHT22;13107;51.304;6.866;2022-11-04T02:47:55;9.60;99.90
25128;DHT22;13107;51.304;6.866;2022-11-04T02:52:12;9.50;99.90
25128;DHT22;13107;51.304;6.866;2022-11-04T02:56:18;9.60;99.90
25128;DHT22;13107;51.304;6.866;2022-11-04T03:00:21;9.50;99.90
25128;DHT22;13107;51.304;6.866;2022-11-04T03:04:29;9.50;99.90
25128;DHT22;13107;51.304;6.866;2022-11-04T03:08:35;9.40;99.90
25128;DHT22;13107;51.304;6.866;2022-11-04T03:12:43;9.30;99.90
25128;DHT22;13107;51.304;6.866;2022-11-04T03:16:50;9.30;99.90
25128;DHT22;13107;51.304;6.866;2022-11-04T03:20:56;9.20;99.90
25128;DHT22;13107;51.304;6.866;2022-11-04T03:25:00;9.10;99.90
25128;DHT22;13107;51.304;6.866;2022-11-04T03:29:22;9.10;99.90
25128;DHT22;13107;51.304;6.866;2022-11-04T03:33:37;9.10;99.90
25128;DHT22;13107;51.304;6.866;2022-11-04T03:37:40;9.00;99.90
25128;DHT22;13107;51.304;6.866;2022-11-04T03:41:48;8.90;99.90
25128;DHT22;13107;51.304;6.866;2022-11-04T03:45:51;8.80;99.90
25128;DHT22;13107;51.304;6.866;2022-11-04T03:50:12;8.70;99.90
25128;DHT22;13107;51.304;6.866;2022-11-04T03:54:18;8.70;99.90
25128;DHT22;13107;51.304;6.866;2022-11-04T04:07:08;8.60;99.90
25128;DHT22;13107;51.304;6.866;2022-11-04T04:11:38;8.50;99.90
25128;DHT22;13107;51.304;6.866;2022-11-04T04:16:03;8.30;99.90
25128;DHT22;13107;51.304;6.866;2022-11-04T04:20:18;8.30;99.90
25128;DHT22;13107;51.304;6.866;2022-11-04T04:24:25;8.20;99.90
25128;DHT22;13107;51.304;6.866;2022-11-04T04:28:46;8.10;99.90
25128;DHT22;13107;51.304;6.866;2022-11-04T04:33:02;8.00;99.90
25128;DHT22;13107;51.304;6.866;2022-11-04T04:37:10;7.90;99.90
25128;DHT22;13107;51.304;6.866;2022-11-04T04:41:29;7.90;99.90
25128;DHT22;13107;51.304;6.866;2022-11-04T04:45:52;8.00;99.90
25128;DHT22;13107;51.304;6.866;2022-11-04T04:49:57;8.00;99.90
25128;DHT22;13107;51.304;6.866;2022-11-04T04:53:59;8.10;99.90
25128;DHT22;13107;51.304;6.866;2022-11-04T04:58:00;8.20;99.90
25128;DHT22;13107;51.304;6.866;2022-11-04T05:02:02;8.30;99.90
25128;DHT22;13107;51.304;6.866;2022-11-04T05:06:04;8.40;99.90
25128;DHT22;13107;51.304;6.866;2022-11-04T05:10:08;8.40;99.90
25128;DHT22;13107;51.304;6.866;2022-11-04T05:14:10;8.40;99.90
25128;DHT22;13107;51.304;6.866;2022-11-04T05:18:11;8.40;99.90
25128;DHT22;13107;51.304;6.866;2022-11-04T05:22:13;8.30;99.90
25128;DHT22;13107;51.304;6.866;2022-11-04T05:26:15;8.20;99.90
25128;DHT22;13107;51.304;6.866;2022-11-04T05:30:16;8.10;99.90
25128;DHT22;13107;51.304;6.866;2022-11-04T05:34:18;8.00;99.90
25128;DHT22;13107;51.304;6.866;2022-11-04T05:38:20;8.00;99.90
25128;DHT22;13107;51.304;6.866;2022-11-04T05:42:21;7.90;99.90
25128;DHT22;13107;51.304;6.866;2022-11-04T05:46:23;7.80;99.90
25128;DHT22;13107;51.304;6.866;2022-11-04T05:50:26;7.70;99.90
25128;DHT22;13107;51.304;6.866;2022-11-04T05:54:27;7.60;99.90
25128;DHT22;13107;51.304;6.866;2022-11-04T05:58:29;7.50;99.90
25128;DHT22;13107;51.304;6.866;2022-11-04T06:02:30;7.50;99.90
25128;DHT22;13107;51.304;6.866;2022-11-04T06:06:35;7.50;99.90
25128;DHT22;13107;51.304;6.866;2022-11-04T06:10:37;7.40;99.90
25128;DHT22;13107;51.304;6.866;2022-11-04T06:14:38;7.30;99.90
25128;DHT22;13107;51.304;6.866;2022-11-04T06:18:40;7.20;99.90
25128;DHT22;13107;51.304;6.866;2022-11-04T06:22:42;7.20;99.90
25128;DHT22;13107;51.304;6.866;2022-11-04T06:26:43;7.20;99.90
25128;DHT22;13107;51.304;6.866;2022-11-04T06:30:46;7.10;99.90
25128;DHT22;13107;51.304;6.866;2022-11-04T06:34:47;7.20;99.90
25128;DHT22;13107;51.304;6.866;2022-11-04T06:38:49;7.30;99.90
25128;DHT22;13107;51.304;6.866;2022-11-04T06:42:51;7.30;99.90
25128;DHT22;13107;51.304;6.866;2022-11-04T06:46:52;7.40;99.90
25128;DHT22;13107;51.304;6.866;2022-11-04T06:50:54;7.50;99.90
25128;DHT22;13107;51.304;6.866;2022-11-04T06:54:56;7.60;99.90
25128;DHT22;13107;51.304;6.866;2022-11-04T06:58:58;7.70;99.90
25128;DHT22;13107;51.304;6.866;2022-11-04T07:02:59;7.90;99.90
25128;DHT22;13107;51.304;6.866;2022-11-04T07:07:01;7.90;99.90
25128;DHT22;13107;51.304;6.866;2022-11-04T07:11:03;8.00;99.90
25128;DHT22;13107;51.304;6.866;2022-11-04T07:15:06;8.10;99.90
25128;DHT22;13107;51.304;6.866;2022-11-04T07:19:08;8.20;99.90
25128;DHT22;13107;51.304;6.866;2022-11-04T07:23:09;8.30;99.90
25128;DHT22;13107;51.304;6.866;2022-11-04T07:27:11;8.50;99.90
25128;DHT22;13107;51.304;6.866;2022-11-04T07:31:13;8.50;99.90
25128;DHT22;13107;51.304;6.866;2022-11-04T07:35:15;8.70;99.90
25128;DHT22;13107;51.304;6.866;2022-11-04T07:39:16;8.70;99.90
25128;DHT22;13107;51.304;6.866;2022-11-04T07:43:18;8.80;99.90
25128;DHT22;13107;51.304;6.866;2022-11-04T07:47:20;8.90;99.90
25128;DHT22;13107;51.304;6.866;2022-11-04T07:51:22;9.10;99.90
25128;DHT22;13107;51.304;6.866;2022-11-04T07:55:24;9.20;99.90
25128;DHT22;13107;51.304;6.866;2022-11-04T07:59:26;9.30;99.90
25128;DHT22;13107;51.304;6.866;2022-11-04T08:03:28;9.40;99.90
25128;DHT22;13107;51.304;6.866;2022-11-04T08:07:30;9.50;99.90
25128;DHT22;13107;51.304;6.866;2022-11-04T08:11:32;9.60;99.90
25128;DHT22;13107;51.304;6.866;2022-11-04T08:15:35;9.60;99.90
25128;DHT22;13107;51.304;6.866;2022-11-04T08:19:36;9.80;99.90
25128;DHT22;13107;51.304;6.866;2022-11-04T08:23:38;9.80;99.90
25128;DHT22;13107;51.304;6.866;2022-11-04T08:27:40;9.90;99.90
25128;DHT22;13107;51.304;6.866;2022-11-04T08:31:42;9.90;99.90
25128;DHT22;13107;51.304;6.866;2022-11-04T08:35:44;10.00;99.90
25128;DHT22;13107;51.304;6.866;2022-11-04T08:39:45;10.00;99.90
25128;DHT22;13107;51.304;6.866;2022-11-04T08:43:47;9.90;99.90
25128;DHT22;13107;51.304;6.866;2022-11-04T08:47:49;10.00;99.90
25128;DHT22;13107;51.304;6.866;2022-11-04T08:51:51;10.00;99.90
25128;DHT22;13107;51.304;6.866;2022-11-04T08:56:14;10.00;99.90
25128;DHT22;13107;51.304;6.866;2022-11-04T09:00:16;10.00;99.90
25128;DHT22;13107;51.304;6.866;2022-11-04T09:04:18;10.00;99.90
25128;DHT22;13107;51.304;6.866;2022-11-04T09:08:20;10.00;99.90
25128;DHT22;13107;51.304;6.866;2022-11-04T09:12:22;10.10;99.90
25128;DHT22;13107;51.304;6.866;2022-11-04T09:16:23;10.20;99.90
25128;DHT22;13107;51.304;6.866;2022-11-04T09:20:25;10.20;99.90
25128;DHT22;13107;51.304;6.866;2022-11-04T09:24:28;10.30;99.90
25128;DHT22;13107;51.304;6.866;2022-11-04T09:28:30;10.40;99.90
25128;DHT22;13107;51.304;6.866;2022-11-04T09:32:32;10.50;99.90
25128;DHT22;13107;51.304;6.866;2022-11-04T09:36:33;10.60;99.90
25128;DHT22;13107;51.304;6.866;2022-11-04T09:40:35;10.70;99.90
25128;DHT22;13107;51.304;6.866;2022-11-04T09:44:57;10.80;99.90
25128;DHT22;13107;51.304;6.866;2022-11-04T09:49:22;10.90;99.90
25128;DHT22;13107;51.304;6.866;2022-11-04T09:53:26;11.10;99.90
25128;DHT22;13107;51.304;6.866;2022-11-04T09:57:28;11.20;99.90
25128;DHT22;13107;51.304;6.866;2022-11-04T10:01:51;11.30;99.90
25128;DHT22;13107;51.304;6.866;2022-11-04T10:06:23;11.50;99.90
25128;DHT22;13107;51.304;6.866;2022-11-04T10:10:59;11.70;99.90
25128;DHT22;13107;51.304;6.866;2022-11-04T10:19:47;11.70;99.90
25128;DHT22;13107;51.304;6.866;2022-11-04T10:28:19;11.60;99.90
25128;DHT22;13107;51.304;6.866;2022-11-04T10:32:37;11.60;99.90
25128;DHT22;13107;51.304;6.866;2022-11-04T10:36:41;11.50;99.90
25128;DHT22;13107;51.304;6.866;2022-11-04T10:40:49;11.40;99.90
25128;DHT22;13107;51.304;6.866;2022-11-04T10:44:52;11.40;99.90
25128;DHT22;13107;51.304;6.866;2022-11-04T10:49:01;11.30;99.90
25128;DHT22;13107;51.304;6.866;2022-11-04T10:53:19;11.30;99.90
25128;DHT22;13107;51.304;6.866;2022-11-04T10:57:24;11.40;99.90
25128;DHT22;13107;51.304;6.866;2022-11-04T11:01:29;11.60;99.90
25128;DHT22;13107;51.304;6.866;2022-11-04T11:05:31;11.90;99.90
25128;DHT22;13107;51.304;6.866;2022-11-04T11:09:35;11.90;99.90
25128;DHT22;13107;51.304;6.866;2022-11-04T11:13:42;12.00;99.90
25128;DHT22;13107;51.304;6.866;2022-11-04T11:17:45;12.00;99.90
25128;DHT22;13107;51.304;6.866;2022-11-04T11:21:50;12.00;99.90
25128;DHT22;13107;51.304;6.866;2022-11-04T11:25:52;11.90;99.90
25128;DHT22;13107;51.304;6.866;2022-11-04T11:29:54;11.80;99.90
25128;DHT22;13107;51.304;6.866;2022-11-04T11:33:58;11.80;99.90
25128;DHT22;13107;51.304;6.866;2022-11-04T11:38:01;11.80;99.90
25128;DHT22;13107;51.304;6.866;2022-11-04T11:42:12;11.80;99.90
25128;DHT22;13107;51.304;6.866;2022-11-04T11:46:25;11.80;99.90
25128;DHT22;13107;51.304;6.866;2022-11-04T11:50:29;11.60;99.90
25128;DHT22;13107;51.304;6.866;2022-11-04T11:54:36;11.60;99.90
25128;DHT22;13107;51.304;6.866;2022-11-04T11:58:49;11.60;99.90
25128;DHT22;13107;51.304;6.866;2022-11-04T12:03:24;11.50;99.90
25128;DHT22;13107;51.304;6.866;2022-11-04T12:21:16;11.40;99.90
25128;DHT22;13107;51.304;6.866;2022-11-04T12:25:31;11.40;99.90
25128;DHT22;13107;51.304;6.866;2022-11-04T12:51:02;11.70;99.90
25128;DHT22;13107;51.304;6.866;2022-11-04T13:08:28;11.70;99.90
25128;DHT22;13107;51.304;6.866;2022-11-04T13:12:39;11.80;99.90
25128;DHT22;13107;51.304;6.866;2022-11-04T13:16:44;11.80;99.90
25128;DHT22;13107;51.304;6.866;2022-11-04T13:24:57;11.90;99.90
25128;DHT22;13107;51.304;6.866;2022-11-04T13:29:13;12.20;99.90
25128;DHT22;13107;51.304;6.866;2022-11-04T13:37:36;13.50;99.90
25128;DHT22;13107;51.304;6.866;2022-11-04T13:46:00;13.10;99.90
25128;DHT22;13107;51.304;6.866;2022-11-04T13:50:03;13.00;99.90
25128;DHT22;13107;51.304;6.866;2022-11-04T13:54:25;13.20;99.90
25128;DHT22;13107;51.304;6.866;2022-11-04T13:58:28;13.70;99.90
25128;DHT22;13107;51.304;6.866;2022-11-04T14:02:56;14.40;99.90
25128;DHT22;13107;51.304;6.866;2022-11-04T14:07:01;15.00;99.90
25128;DHT22;13107;51.304;6.866;2022-11-04T14:11:09;14.90;99.90
25128;DHT22;13107;51.304;6.866;2022-11-04T14:15:13;14.30;99.90
25128;DHT22;13107;51.304;6.866;2022-11-04T14:23:57;13.50;99.90
25128;DHT22;13107;51.304;6.866;2022-11-04T14:32:11;13.00;99.90
25128;DHT22;13107;51.304;6.866;2022-11-04T14:36:24;12.90;99.90
25128;DHT22;13107;51.304;6.866;2022-11-04T14:40:48;12.60;99.90
25128;DHT22;13107;51.304;6.866;2022-11-04T14:44:50;12.50;99.90
25128;DHT22;13107;51.304;6.866;2022-11-04T14:48:54;12.30;99.90
25128;DHT22;13107;51.304;6.866;2022-11-04T14:53:00;12.10;99.90
25128;DHT22;13107;51.304;6.866;2022-11-04T15:01:15;11.80;99.90
25128;DHT22;13107;51.304;6.866;2022-11-04T15:05:26;11.70;99.90
25128;DHT22;13107;51.304;6.866;2022-11-04T15:09:31;11.60;99.90
25128;DHT22;13107;51.304;6.866;2022-11-04T15:13:36;11.60;99.90
25128;DHT22;13107;51.304;6.866;2022-11-04T15:17:38;11.60;99.90
25128;DHT22;13107;51.304;6.866;2022-11-04T15:21:40;11.50;99.90
25128;DHT22;13107;51.304;6.866;2022-11-04T15:25:47;11.50;99.90
25128;DHT22;13107;51.304;6.866;2022-11-04T15:30:00;11.40;99.90
25128;DHT22;13107;51.304;6.866;2022-11-04T15:34:05;11.40;99.90
25128;DHT22;13107;51.304;6.866;2022-11-04T15:38:14;11.30;99.90
25128;DHT22;13107;51.304;6.866;2022-11-04T15:42:23;11.20;99.90
25128;DHT22;13107;51.304;6.866;2022-11-04T15:46:52;11.00;99.90
25128;DHT22;13107;51.304;6.866;2022-11-04T15:55:21;10.60;99.90
25128;DHT22;13107;51.304;6.866;2022-11-04T15:59:35;10.50;99.90
25128;DHT22;13107;51.304;6.866;2022-11-04T16:03:52;10.30;99.90
25128;DHT22;13107;51.304;6.866;2022-11-04T16:08:12;10.30;99.90
25128;DHT22;13107;51.304;6.866;2022-11-04T16:12:16;10.10;99.90
25128;DHT22;13107;51.304;6.866;2022-11-04T16:16:28;10.10;99.90
25128;DHT22;13107;51.304;6.866;2022-11-04T16:20:30;10.00;99.90
25128;DHT22;13107;51.304;6.866;2022-11-04T16:24:34;9.90;99.90
25128;DHT22;13107;51.304;6.866;2022-11-04T16:28:38;9.90;99.90
25128;DHT22;13107;51.304;6.866;2022-11-04T16:32:47;9.80;99.90
25128;DHT22;13107;51.304;6.866;2022-11-04T16:36:49;9.80;99.90
25128;DHT22;13107;51.304;6.866;2022-11-04T16:40:50;9.70;99.90
25128;DHT22;13107;51.304;6.866;2022-11-04T16:44:58;9.70;99.90
25128;DHT22;13107;51.304;6.866;2022-11-04T16:49:00;9.70;99.90
25128;DHT22;13107;51.304;6.866;2022-11-04T16:53:02;9.70;99.90
25128;DHT22;13107;51.304;6.866;2022-11-04T16:57:04;9.80;99.90
25128;DHT22;13107;51.304;6.866;2022-11-04T17:01:11;9.80;99.90
25128;DHT22;13107;51.304;6.866;2022-11-04T17:05:13;9.80;99.90
25128;DHT22;13107;51.304;6.866;2022-11-04T17:09:20;9.80;99.90
25128;DHT22;13107;51.304;6.866;2022-11-04T17:13:22;9.80;99.90
25128;DHT22;13107;51.304;6.866;2022-11-04T17:17:23;9.80;99.90
25128;DHT22;13107;51.304;6.866;2022-11-04T17:21:25;9.90;99.90
25128;DHT22;13107;51.304;6.866;2022-11-04T17:25:28;9.80;99.90
25128;DHT22;13107;51.304;6.866;2022-11-04T17:29:30;9.80;99.90
25128;DHT22;13107;51.304;6.866;2022-11-04T17:33:32;9.70;99.90
25128;DHT22;13107;51.304;6.866;2022-11-04T17:37:33;9.70;99.90
25128;DHT22;13107;51.304;6.866;2022-11-04T17:41:35;9.60;99.90
25128;DHT22;13107;51.304;6.866;2022-11-04T17:45:55;9.50;99.90
25128;DHT22;13107;51.304;6.866;2022-11-04T17:50:17;9.50;99.90
25128;DHT22;13107;51.304;6.866;2022-11-04T17:54:20;9.40;99.90
25128;DHT22;13107;51.304;6.866;2022-11-04T17:58:22;9.30;99.90
25128;DHT22;13107;51.304;6.866;2022-11-04T18:02:24;9.20;99.90
25128;DHT22;13107;51.304;6.866;2022-11-04T18:06:29;9.10;99.90
25128;DHT22;13107;51.304;6.866;2022-11-04T18:10:31;9.10;99.90
25128;DHT22;13107;51.304;6.866;2022-11-04T18:14:33;9.10;99.90
25128;DHT22;13107;51.304;6.866;2022-11-04T18:18:34;8.90;99.90
25128;DHT22;13107;51.304;6.866;2022-11-04T18:22:37;8.90;99.90
25128;DHT22;13107;51.304;6.866;2022-11-04T18:26:39;8.90;99.90
25128;DHT22;13107;51.304;6.866;2022-11-04T18:30:41;8.80;99.90
25128;DHT22;13107;51.304;6.866;2022-11-04T18:34:42;8.70;99.90
25128;DHT22;13107;51.304;6.866;2022-11-04T18:38:45;8.60;99.90
25128;DHT22;13107;51.304;6.866;2022-11-04T18:42:47;8.60;99.90
25128;DHT22;13107;51.304;6.866;2022-11-04T18:46:49;8.50;99.90
25128;DHT22;13107;51.304;6.866;2022-11-04T18:50:50;8.40;99.90
25128;DHT22;13107;51.304;6.866;2022-11-04T18:54:52;8.40;99.90
25128;DHT22;13107;51.304;6.866;2022-11-04T18:58:54;8.30;99.90
25128;DHT22;13107;51.304;6.866;2022-11-04T19:02:56;8.20;99.90
25128;DHT22;13107;51.304;6.866;2022-11-04T19:06:57;8.20;99.90
25128;DHT22;13107;51.304;6.866;2022-11-04T19:11:00;8.20;99.90
25128;DHT22;13107;51.304;6.866;2022-11-04T19:15:02;8.10;99.90
25128;DHT22;13107;51.304;6.866;2022-11-04T19:19:12;8.10;99.90
25128;DHT22;13107;51.304;6.866;2022-11-04T19:23:15;8.10;99.90
25128;DHT22;13107;51.304;6.866;2022-11-04T19:27:17;8.20;99.90
25128;DHT22;13107;51.304;6.866;2022-11-04T19:31:22;8.20;99.90
25128;DHT22;13107;51.304;6.866;2022-11-04T19:35:24;8.20;99.90
25128;DHT22;13107;51.304;6.866;2022-11-04T19:39:26;8.20;99.90
25128;DHT22;13107;51.304;6.866;2022-11-04T19:43:28;8.20;99.90
25128;DHT22;13107;51.304;6.866;2022-11-04T19:47:30;8.10;99.90
25128;DHT22;13107;51.304;6.866;2022-11-04T19:51:31;8.20;99.90
25128;DHT22;13107;51.304;6.866;2022-11-04T19:55:33;8.20;99.90
25128;DHT22;13107;51.304;6.866;2022-11-04T19:59:35;8.30;99.90
25128;DHT22;13107;51.304;6.866;2022-11-04T20:03:38;8.30;99.90
25128;DHT22;13107;51.304;6.866;2022-11-04T20:07:40;8.30;99.90
25128;DHT22;13107;51.304;6.866;2022-11-04T20:11:41;8.30;99.90
25128;DHT22;13107;51.304;6.866;2022-11-04T20:16:12;8.40;99.90
25128;DHT22;13107;51.304;6.866;2022-11-04T20:20:14;8.30;99.90
25128;DHT22;13107;51.304;6.866;2022-11-04T20:24:16;8.30;99.90
25128;DHT22;13107;51.304;6.866;2022-11-04T20:28:17;8.30;99.90
25128;DHT22;13107;51.304;6.866;2022-11-04T20:32:19;8.30;99.90
25128;DHT22;13107;51.304;6.866;2022-11-04T20:36:23;8.30;99.90
25128;DHT22;13107;51.304;6.866;2022-11-04T20:40:25;8.40;99.90
25128;DHT22;13107;51.304;6.866;2022-11-04T20:44:27;8.50;99.90
25128;DHT22;13107;51.304;6.866;2022-11-04T20:48:29;8.50;99.90
25128;DHT22;13107;51.304;6.866;2022-11-04T20:52:31;8.50;99.90
25128;DHT22;13107;51.304;6.866;2022-11-04T20:56:35;8.50;99.90
25128;DHT22;13107;51.304;6.866;2022-11-04T21:00:37;8.50;99.90
25128;DHT22;13107;51.304;6.866;2022-11-04T21:04:39;8.50;99.90
25128;DHT22;13107;51.304;6.866;2022-11-04T21:08:41;8.60;99.90
25128;DHT22;13107;51.304;6.866;2022-11-04T21:12:42;8.60;99.90
25128;DHT22;13107;51.304;6.866;2022-11-04T21:16:44;8.60;99.90
25128;DHT22;13107;51.304;6.866;2022-11-04T21:20:47;8.60;99.90
25128;DHT22;13107;51.304;6.866;2022-11-04T21:24:49;8.60;99.90
25128;DHT22;13107;51.304;6.866;2022-11-04T21:28:58;8.60;99.90
25128;DHT22;13107;51.304;6.866;2022-11-04T21:33:04;8.50;99.90
25128;DHT22;13107;51.304;6.866;2022-11-04T21:37:05;8.40;99.90
25128;DHT22;13107;51.304;6.866;2022-11-04T21:41:16;8.30;99.90
25128;DHT22;13107;51.304;6.866;2022-11-04T21:45:18;8.20;99.90
25128;DHT22;13107;51.304;6.866;2022-11-04T21:49:20;8.10;99.90
25128;DHT22;13107;51.304;6.866;2022-11-04T21:53:22;8.10;99.90
25128;DHT22;13107;51.304;6.866;2022-11-04T21:57:23;8.00;99.90
25128;DHT22;13107;51.304;6.866;2022-11-04T22:01:27;7.90;99.90
25128;DHT22;13107;51.304;6.866;2022-11-04T22:05:29;7.90;99.90
25128;DHT22;13107;51.304;6.866;2022-11-04T22:09:31;7.80;99.90
25128;DHT22;13107;51.304;6.866;2022-11-04T22:13:32;7.90;99.90
25128;DHT22;13107;51.304;6.866;2022-11-04T22:17:34;7.90;99.90
25128;DHT22;13107;51.304;6.866;2022-11-04T22:21:42;7.90;99.90
25128;DHT22;13107;51.304;6.866;2022-11-04T22:25:44;7.90;99.90
25128;DHT22;13107;51.304;6.866;2022-11-04T22:29:50;7.90;99.90
25128;DHT22;13107;51.304;6.866;2022-11-04T22:33:53;7.90;99.90
25128;DHT22;13107;51.304;6.866;2022-11-04T22:37:55;7.90;99.90
25128;DHT22;13107;51.304;6.866;2022-11-04T22:41:57;7.90;99.90
25128;DHT22;13107;51.304;6.866;2022-11-04T22:46:04;7.80;99.90
25128;DHT22;13107;51.304;6.866;2022-11-04T22:50:07;7.80;99.90
25128;DHT22;13107;51.304;6.866;2022-11-04T22:54:09;7.70;99.90
25128;DHT22;13107;51.304;6.866;2022-11-04T22:58:10;7.60;99.90
25128;DHT22;13107;51.304;6.866;2022-11-04T23:02:12;7.40;99.90
25128;DHT22;13107;51.304;6.866;2022-11-04T23:06:14;7.40;99.90
25128;DHT22;13107;51.304;6.866;2022-11-04T23:10:16;7.20;99.90
25128;DHT22;13107;51.304;6.866;2022-11-04T23:14:36;7.10;99.90
25128;DHT22;13107;51.304;6.866;2022-11-04T23:18:46;7.00;99.90
25128;DHT22;13107;51.304;6.866;2022-11-04T23:22:48;6.90;99.90
25128;DHT22;13107;51.304;6.866;2022-11-04T23:27:10;6.80;99.90
25128;DHT22;13107;51.304;6.866;2022-11-04T23:31:11;6.80;99.90
25128;DHT22;13107;51.304;6.866;2022-11-04T23:35:13;6.70;99.90
25128;DHT22;13107;51.304;6.866;2022-11-04T23:39:33;6.60;99.90
25128;DHT22;13107;51.304;6.866;2022-11-04T23:43:35;6.50;99.90
25128;DHT22;13107;51.304;6.866;2022-11-04T23:47:44;6.40;99.90
25128;DHT22;13107;51.304;6.866;2022-11-04T23:52:05;6.30;99.90
25128;DHT22;13107;51.304;6.866;2022-11-04T23:56:26;6.30;99.90
